Time;durP1;ratioP1;P1;durP2;ratioP2;P2;SDS_P1;SDS_P2;PMS_P1;PMS_P2;Temp;Humidity;BMP_temperature;BMP_pressure;BME280_temperature;BME280_humidity;BME280_pressure;Samples;Min_cycle;Max_cycle;Signal;HPM_P1;HPM_P2
2022/10/18 00:00:48;;;;;;;61.73;31.67;;;;;;;6.38;65.20;102264.41;124052;1102;102959;-74
2022/10/18 00:03:39;;;;;;;61.43;30.77;;;;;;;6.36;64.99;102265.99;125569;1101;102257;-74
2022/10/18 00:06:10;;;;;;;64.33;33.57;;;;;;;6.34;65.04;102272.76;124098;1102;103222;-74
2022/10/18 00:08:42;;;;;;;57.70;30.83;;;;;;;6.32;65.39;102261.30;124079;1102;104245;-74
2022/10/18 00:11:13;;;;;;;54.27;30.20;;;;;;;6.28;65.55;102261.87;124089;1102;104392;-73
2022/10/18 00:13:44;;;;;;;59.70;30.03;;;;;;;6.28;65.60;102262.77;124153;1102;104242;-74
2022/10/18 00:16:17;;;;;;;57.30;29.73;;;;;;;6.29;65.63;102266.27;124172;1102;104249;-74
2022/10/18 00:19:06;;;;;;;57.33;28.30;;;;;;;6.24;65.45;102271.11;124058;1102;103304;-74
2022/10/18 00:21:38;;;;;;;57.53;28.70;;;;;;;6.20;65.43;102261.24;124116;1102;103659;-74
2022/10/18 00:24:09;;;;;;;58.37;29.13;;;;;;;6.18;65.51;102256.67;124136;1102;104169;-74
2022/10/18 00:26:40;;;;;;;51.77;28.37;;;;;;;6.17;65.24;102260.98;124171;1102;104357;-73
2022/10/18 00:29:15;;;;;;;55.35;28.45;;;;;;;6.11;65.53;102258.78;124130;1102;104278;-74
2022/10/18 00:31:47;;;;;;;58.77;30.00;;;;;;;6.13;65.50;102255.40;124108;1102;104665;-74
2022/10/18 00:34:18;;;;;;;54.40;27.27;;;;;;;6.08;65.45;102261.13;124066;1102;104281;-74
2022/10/18 00:36:49;;;;;;;53.40;29.20;;;;;;;6.05;65.90;102250.45;124130;1102;104192;-73
2022/10/18 00:39:22;;;;;;;56.07;29.53;;;;;;;6.02;65.59;102250.20;124088;1102;102890;-74
2022/10/18 00:41:53;;;;;;;59.27;29.90;;;;;;;6.00;65.47;102249.18;124167;1102;102038;-74
2022/10/18 00:45:02;;;;;;;54.93;29.10;;;;;;;6.00;65.52;102243.97;124098;1102;104221;-74
2022/10/18 00:47:34;;;;;;;55.27;27.70;;;;;;;5.96;66.06;102244.45;124139;1102;102918;-74
2022/10/18 00:50:07;;;;;;;57.10;28.77;;;;;;;5.93;65.85;102242.50;124094;1102;104654;-73
2022/10/18 00:52:44;;;;;;;58.90;29.03;;;;;;;5.94;65.76;102238.22;124061;1102;102860;-74
2022/10/18 00:55:15;;;;;;;54.50;27.65;;;;;;;5.91;66.17;102238.86;124142;1102;104185;-74
2022/10/18 00:57:47;;;;;;;53.67;28.43;;;;;;;5.92;65.99;102235.48;124180;1102;102325;-74
2022/10/18 01:00:19;;;;;;;55.93;28.17;;;;;;;5.88;66.03;102233.40;124060;1102;104178;-73
2022/10/18 01:02:50;;;;;;;54.20;28.23;;;;;;;5.84;66.19;102236.52;124109;1102;104169;-74
2022/10/18 01:05:22;;;;;;;53.57;28.40;;;;;;;5.79;66.26;102230.03;124075;1102;101980;-74
2022/10/18 01:08:24;;;;;;;54.77;27.40;;;;;;;5.76;66.31;102232.38;124125;1102;102832;-74
2022/10/18 01:11:04;;;;;;;57.07;27.87;;;;;;;5.69;66.14;102233.58;124043;1102;118919;-74
2022/10/18 01:13:47;;;;;;;56.00;28.90;;;;;;;5.66;66.07;102235.93;124082;1101;104405;-73
2022/10/18 01:16:25;;;;;;;57.40;30.97;;;;;;;5.64;66.21;102228.76;124132;1101;104212;-74
2022/10/18 01:19:01;;;;;;;59.53;30.50;;;;;;;5.66;66.02;102235.03;124129;1102;104217;-73
2022/10/18 01:21:43;;;;;;;63.57;31.47;;;;;;;5.65;66.17;102231.49;124150;1102;103678;-74
2022/10/18 01:24:56;;;;;;;57.07;30.73;;;;;;;5.65;66.13;102231.49;124126;1102;104220;-73
2022/10/18 01:27:44;;;;;;;62.93;32.77;;;;;;;5.61;66.56;102238.92;124116;1102;104348;-73
2022/10/18 01:30:45;;;;;;;59.90;32.50;;;;;;;5.60;66.18;102230.21;124127;1102;104269;-74
2022/10/18 01:33:26;;;;;;;56.90;31.00;;;;;;;5.58;66.49;102229.19;124007;1105;104333;-74
2022/10/18 01:36:03;;;;;;;54.63;31.53;;;;;;;5.57;66.29;102233.45;124179;1102;104258;-73
2022/10/18 01:38:36;;;;;;;57.93;30.17;;;;;;;5.57;66.17;102229.95;124118;1102;102832;-73
2022/10/18 01:41:09;;;;;;;56.95;30.70;;;;;;;5.54;66.35;102229.70;124116;1102;104215;-74
2022/10/18 01:43:43;;;;;;;57.83;29.77;;;;;;;5.49;65.99;102224.10;124123;1102;104221;-74
2022/10/18 01:46:18;;;;;;;58.73;30.92;;;;;;;5.45;66.74;102218.51;125555;1102;104667;-74
2022/10/18 01:48:51;;;;;;;59.30;32.27;;;;;;;5.45;66.48;102218.51;124173;1102;104245;-74
2022/10/18 01:51:26;;;;;;;57.20;32.57;;;;;;;5.45;66.47;102213.30;124149;1102;104333;-74
2022/10/18 01:53:58;;;;;;;61.73;31.93;;;;;;;5.44;67.21;102211.47;124107;1102;104338;-74
2022/10/18 01:56:38;;;;;;;57.33;32.37;;;;;;;5.43;66.94;102205.36;124178;1102;102860;-74
2022/10/18 01:59:20;;;;;;;61.77;33.67;;;;;;;5.44;66.66;102207.20;124122;1102;104277;-74
2022/10/18 02:01:59;;;;;;;60.07;32.13;;;;;;;5.42;66.95;102208.73;124082;1102;104245;-74
2022/10/18 02:04:40;;;;;;;61.13;33.97;;;;;;;5.31;66.50;102220.84;124132;1101;103067;-73
2022/10/18 02:07:29;;;;;;;61.67;34.83;;;;;;;5.21;67.01;102219.17;124064;1102;104157;-74
2022/10/18 02:10:08;;;;;;;66.87;36.87;;;;;;;5.19;66.44;102219.84;124204;1102;104220;-74
2022/10/18 02:12:44;;;;;;;68.40;37.03;;;;;;;5.15;67.03;102209.94;124095;1102;104227;-74
2022/10/18 02:15:23;;;;;;;69.00;36.77;;;;;;;5.10;67.34;102213.86;124078;1102;104382;-74
2022/10/18 02:17:56;;;;;;;71.13;37.40;;;;;;;5.04;66.68;102214.23;124139;1102;104220;-74
2022/10/18 02:20:31;;;;;;;63.10;36.85;;;;;;;5.02;67.15;102210.59;124115;1102;102841;-74
2022/10/18 02:23:05;;;;;;;64.87;37.37;;;;;;;5.03;66.75;102212.39;124090;1102;104241;-74
2022/10/18 02:25:37;;;;;;;63.35;37.15;;;;;;;5.03;66.91;102208.12;124182;1102;104214;-74
2022/10/18 02:28:08;;;;;;;68.50;37.20;;;;;;;5.04;66.81;102220.33;124172;1101;104284;-74
2022/10/18 02:30:44;;;;;;;67.03;35.93;;;;;;;5.06;67.03;102212.66;124104;1101;104242;-74
2022/10/18 02:33:20;;;;;;;61.67;36.37;;;;;;;5.07;67.45;102208.39;124072;1102;104342;-73
2022/10/18 02:35:56;;;;;;;62.83;36.33;;;;;;;5.06;67.37;102211.76;124251;1102;102934;-73
2022/10/18 02:38:29;;;;;;;64.23;36.23;;;;;;;5.06;66.94;102211.76;124168;1102;104242;-74
2022/10/18 02:41:01;;;;;;;62.70;35.27;;;;;;;5.00;67.19;102210.47;124119;1102;104293;-73
2022/10/18 02:43:34;;;;;;;62.43;35.20;;;;;;;4.95;67.43;102203.94;124129;1102;104173;-73
2022/10/18 02:46:05;;;;;;;58.70;32.40;;;;;;;4.92;67.57;102207.97;124141;1101;104285;-73
2022/10/18 02:48:37;;;;;;;54.30;31.97;;;;;;;4.85;67.31;102204.84;124157;1102;104654;-73
2022/10/18 02:51:08;;;;;;;57.00;31.97;;;;;;;4.84;67.29;102204.71;124118;1102;104245;-73
2022/10/18 02:53:39;;;;;;;53.23;31.63;;;;;;;4.87;67.85;102210.18;124164;1102;104038;-73
2022/10/18 02:56:12;;;;;;;47.55;28.20;;;;;;;4.80;67.20;102203.55;124132;1102;104277;-74
2022/10/18 02:58:43;;;;;;;50.07;28.30;;;;;;;4.67;67.51;102201.59;124108;1102;104338;-74
2022/10/18 03:01:14;;;;;;;53.50;28.70;;;;;;;4.61;67.31;102198.45;124124;1102;102947;-74
2022/10/18 03:03:46;;;;;;;51.00;28.00;;;;;;;4.56;67.46;102201.42;124155;1102;104221;-74
2022/10/18 03:06:17;;;;;;;51.17;29.37;;;;;;;4.53;67.64;102202.05;124127;1102;104172;-73
2022/10/18 03:08:48;;;;;;;50.60;28.30;;;;;;;4.56;67.90;102196.22;124180;1101;102835;-74
2022/10/18 03:11:19;;;;;;;49.77;28.23;;;;;;;4.61;67.56;102192.32;124140;1102;104188;-74
2022/10/18 03:13:50;;;;;;;53.13;29.53;;;;;;;4.66;67.58;102194.55;124200;1102;104203;-73
2022/10/18 03:16:22;;;;;;;53.50;29.37;;;;;;;4.71;67.83;102191.45;124112;1102;104245;-74
2022/10/18 03:18:53;;;;;;;50.77;28.03;;;;;;;4.73;67.79;102195.98;124186;1102;102896;-74
2022/10/18 03:21:24;;;;;;;51.47;27.93;;;;;;;4.69;67.78;102204.32;124127;1102;104179;-74
2022/10/18 03:23:55;;;;;;;52.87;27.73;;;;;;;4.64;68.20;102205.59;124077;1102;102679;-74
2022/10/18 03:26:26;;;;;;;48.67;28.27;;;;;;;4.63;68.29;102193.39;124172;1102;104054;-73
2022/10/18 03:28:57;;;;;;;46.57;27.93;;;;;;;4.65;68.57;102200.52;124210;1102;104259;-74
2022/10/18 03:31:28;;;;;;;51.27;27.53;;;;;;;4.65;68.74;102200.52;124142;1102;104175;-74
2022/10/18 03:34:00;;;;;;;50.43;28.80;;;;;;;4.59;68.56;102206.88;124144;1102;118971;-74
2022/10/18 03:36:32;;;;;;;49.97;28.53;;;;;;;4.53;68.32;102199.45;124122;1102;104204;-74
2022/10/18 03:39:03;;;;;;;50.53;30.03;;;;;;;4.50;68.02;102204.38;124175;1102;104057;-74
2022/10/18 03:41:35;;;;;;;56.43;29.57;;;;;;;4.43;68.45;102202.05;124187;1102;101877;-73
2022/10/18 03:44:06;;;;;;;52.00;28.87;;;;;;;4.36;68.37;102202.27;124141;1102;102844;-74
2022/10/18 03:46:39;;;;;;;53.50;30.17;;;;;;;4.30;68.18;102202.63;124172;1102;104197;-74
2022/10/18 03:49:10;;;;;;;49.17;27.67;;;;;;;4.22;68.48;102198.45;124117;1102;102962;-74
2022/10/18 03:51:41;;;;;;;49.70;26.97;;;;;;;4.14;68.40;102202.97;124138;1102;103545;-73
2022/10/18 03:54:15;;;;;;;52.83;29.37;;;;;;;4.06;68.15;102206.58;124142;1102;104185;-74
2022/10/18 03:56:46;;;;;;;49.35;28.27;;;;;;;4.05;68.47;102195.29;124188;1102;102838;-73
2022/10/18 03:59:18;;;;;;;51.77;28.53;;;;;;;4.08;68.60;102190.37;124152;1102;104428;-73
2022/10/18 04:01:49;;;;;;;50.60;28.67;;;;;;;4.11;68.94;102193.23;124179;1102;104459;-73
2022/10/18 04:04:20;;;;;;;52.40;28.13;;;;;;;4.15;68.23;102186.61;124105;1102;104182;-74
2022/10/18 04:06:51;;;;;;;51.77;30.07;;;;;;;4.19;69.04;102188.72;124146;1102;101865;-74
2022/10/18 04:09:22;;;;;;;52.97;28.80;;;;;;;4.23;68.25;102190.79;124131;1102;104955;-74
2022/10/18 04:11:53;;;;;;;52.03;28.73;;;;;;;4.25;68.75;102183.13;124137;1102;104277;-74
2022/10/18 04:14:25;;;;;;;56.13;29.40;;;;;;;4.27;68.61;102181.56;124119;1102;104277;-74
2022/10/18 04:16:56;;;;;;;55.03;29.43;;;;;;;4.29;68.31;102180.94;124086;1102;104175;-74
2022/10/18 04:19:27;;;;;;;54.03;29.83;;;;;;;4.29;68.60;102175.74;124167;1102;104297;-73
2022/10/18 04:21:58;;;;;;;56.10;29.60;;;;;;;4.32;68.81;102170.81;124184;1101;104301;-74
2022/10/18 04:24:29;;;;;;;53.73;29.50;;;;;;;4.31;68.71;102176.77;124108;1102;104185;-74
2022/10/18 04:27:00;;;;;;;55.13;29.83;;;;;;;4.34;68.84;102180.44;124205;1102;104363;-74
2022/10/18 04:29:32;;;;;;;56.37;30.13;;;;;;;4.35;69.15;102175.38;124238;1102;104369;-74
2022/10/18 04:32:03;;;;;;;55.70;28.67;;;;;;;4.37;68.71;102171.22;124186;1102;103654;-74
2022/10/18 04:34:34;;;;;;;58.67;29.33;;;;;;;4.38;68.82;102162.66;124244;1102;102327;-74
2022/10/18 04:37:05;;;;;;;64.13;30.20;;;;;;;4.42;68.89;102163.82;124224;1102;104316;-75
2022/10/18 04:39:36;;;;;;;54.23;29.47;;;;;;;4.42;69.57;102174.22;124242;1101;104246;-75
2022/10/18 04:42:07;;;;;;;63.03;30.30;;;;;;;4.45;69.11;102170.19;124181;1102;104278;-74
2022/10/18 04:44:38;;;;;;;59.70;29.50;;;;;;;4.53;69.65;102176.05;124185;1102;102511;-74
2022/10/18 04:47:09;;;;;;;53.17;27.70;;;;;;;4.59;69.23;102170.48;124242;1102;102799;-73
2022/10/18 04:49:40;;;;;;;57.63;29.60;;;;;;;4.63;69.19;102177.78;124226;1101;102969;-74
2022/10/18 04:52:14;;;;;;;52.50;28.63;;;;;;;4.66;69.52;102172.85;124204;1102;104172;-74
2022/10/18 04:54:45;;;;;;;56.85;30.05;;;;;;;4.66;69.71;102165.95;124185;1102;104628;-74
2022/10/18 04:57:16;;;;;;;63.43;33.90;;;;;;;4.70;69.67;102161.02;124255;1102;104332;-74
2022/10/18 04:59:47;;;;;;;69.53;37.40;;;;;;;4.72;69.24;102162.98;124279;1102;104204;-74
2022/10/18 05:02:18;;;;;;;68.97;37.43;;;;;;;4.77;69.28;102164.27;124226;1101;102026;-76
2022/10/18 05:04:50;;;;;;;73.67;39.57;;;;;;;4.81;69.06;102155.93;124208;1102;104201;-74
2022/10/18 05:07:21;;;;;;;76.83;38.93;;;;;;;4.85;69.73;102157.12;124088;1102;104178;-74
2022/10/18 05:09:52;;;;;;;78.57;40.60;;;;;;;4.88;69.31;102165.19;124120;1102;104172;-74
2022/10/18 05:12:24;;;;;;;78.03;40.77;;;;;;;4.92;69.18;102175.05;124111;1102;104338;-73
2022/10/18 05:14:55;;;;;;;83.83;42.67;;;;;;;4.95;69.80;102162.31;124104;1102;104203;-74
2022/10/18 05:17:27;;;;;;;76.97;41.83;;;;;;;4.99;69.33;102171.30;124110;1102;104325;-74
2022/10/18 05:19:58;;;;;;;78.27;40.43;;;;;;;5.03;69.79;102166.50;124182;1102;102428;-76
2022/10/18 05:22:30;;;;;;;75.87;40.37;;;;;;;5.07;69.48;102162.45;124124;1102;104227;-74
2022/10/18 05:25:01;;;;;;;79.17;42.30;;;;;;;5.12;69.50;102162.84;124124;1102;104185;-76
2022/10/18 05:27:32;;;;;;;78.63;42.70;;;;;;;5.15;69.21;102161.39;124179;1102;102851;-74
2022/10/18 05:30:05;;;;;;;77.77;41.20;;;;;;;5.20;69.87;102165.31;124132;1102;104460;-75
2022/10/18 05:32:43;;;;;;;83.03;42.63;;;;;;;5.27;69.79;102161.53;124172;1102;104274;-75
2022/10/18 05:35:16;;;;;;;74.57;41.83;;;;;;;5.31;69.88;102165.28;124292;1102;104290;-76
2022/10/18 05:37:48;;;;;;;77.93;41.60;;;;;;;5.36;69.64;102163.97;124333;1102;104175;-75
2022/10/18 05:40:19;;;;;;;73.40;40.80;;;;;;;5.43;69.61;102165.41;124255;1102;104106;-75
2022/10/18 05:42:53;;;;;;;79.57;40.67;;;;;;;5.47;70.02;102164.86;124216;1102;104166;-76
2022/10/18 05:45:25;;;;;;;74.50;40.20;;;;;;;5.52;70.09;102164.47;124168;1102;103935;-75
2022/10/18 05:47:58;;;;;;;76.63;39.03;;;;;;;5.59;69.47;102165.87;124208;1102;104191;-76
2022/10/18 05:50:29;;;;;;;77.67;40.37;;;;;;;5.67;70.16;102157.02;124256;1102;102815;-76
2022/10/18 05:53:02;;;;;;;79.27;41.47;;;;;;;5.75;70.05;102161.16;124252;1102;104227;-76
2022/10/18 05:55:35;;;;;;;75.90;39.17;;;;;;;5.85;69.61;102161.91;124160;1102;104227;-76
2022/10/18 05:58:06;;;;;;;74.73;37.93;;;;;;;5.94;70.05;102162.66;124145;1102;102525;-76
2022/10/18 06:00:40;;;;;;;75.70;39.03;;;;;;;6.02;69.66;102164.20;124174;1102;104256;-77
2022/10/18 06:03:15;;;;;;;80.93;41.83;;;;;;;6.08;69.87;102163.80;124962;1102;102816;-77
2022/10/18 06:05:47;;;;;;;82.83;40.93;;;;;;;6.13;69.68;102165.08;124520;1101;104233;-75
2022/10/18 06:08:20;;;;;;;78.13;39.90;;;;;;;6.05;69.86;102154.03;124113;1102;102527;-76
2022/10/18 06:10:51;;;;;;;75.07;40.27;;;;;;;6.16;69.76;102156.59;124217;1102;102915;-75
2022/10/18 06:13:25;;;;;;;70.50;39.43;;;;;;;6.22;69.48;102162.30;124194;1102;104189;-77
2022/10/18 06:15:59;;;;;;;70.10;37.90;;;;;;;6.28;70.00;102157.58;125044;1102;104342;-77
2022/10/18 06:19:11;;;;;;;68.50;37.67;;;;;;;6.34;69.66;102158.03;124809;1102;103553;-77
2022/10/18 06:25:04;;;;;;;66.03;37.17;;;;;;;6.52;70.28;102142.95;125760;1105;102833;-78
2022/10/18 06:28:15;;;;;;;67.83;35.63;;;;;;;6.61;69.61;102141.05;126018;1105;110908;-78
2022/10/18 06:34:56;;;;;;;66.57;36.87;;;;;;;6.82;69.36;102139.22;125495;1101;104265;-78
2022/10/18 06:38:05;;;;;;;;;;;;;;;;;;;;;
2022/10/18 06:41:31;;;;;;;78.10;39.33;;;;;;;7.06;69.68;102131.44;126125;1101;104181;-80
2022/10/18 06:44:22;;;;;;;82.67;40.17;;;;;;;7.23;69.38;102127.49;125118;1102;104223;-79
2022/10/18 06:46:55;;;;;;;85.30;40.83;;;;;;;7.41;69.80;102137.49;125048;1097;102796;-79
2022/10/18 06:49:35;;;;;;;74.33;43.50;;;;;;;7.60;69.90;102126.70;125566;1102;104252;-78
2022/10/18 06:52:36;;;;;;;79.33;43.87;;;;;;;7.77;69.56;102128.84;124993;1099;102938;-78
2022/10/18 06:55:31;;;;;;;82.23;42.90;;;;;;;7.95;69.49;102123.12;124890;1102;102423;-78
2022/10/18 07:02:10;;;;;;;75.42;41.50;;;;;;;8.35;69.60;102115.52;124926;1102;104278;-78
2022/10/18 07:05:19;;;;;;;;;;;;;;;;;;;;;
2022/10/18 07:08:52;;;;;;;;;;;;;;;;;;;;;
2022/10/18 07:16:08;;;;;;;56.87;31.73;;;;;;;9.10;69.06;102102.41;124978;1099;104245;-79
2022/10/18 07:19:13;;;;;;;101.63;50.23;;;;;;;9.20;69.27;102093.45;125012;1103;102431;-78
2022/10/18 07:22:38;;;;;;;;;;;;;;;;;;;;;
2022/10/18 07:26:00;;;;;;;;;;;;;;;;;;;;;
2022/10/18 07:29:37;;;;;;;59.33;30.77;;;;;;;9.83;68.56;102088.78;124935;1102;104201;-80
2022/10/18 07:44:17;;;;;;;55.70;27.60;;;;;;;10.61;67.98;102077.97;124314;1103;102549;-79
2022/10/18 07:47:19;;;;;;;56.70;26.07;;;;;;;10.79;68.57;102072.01;124985;1102;104207;-79
2022/10/18 07:50:09;;;;;;;49.63;26.77;;;;;;;10.97;68.15;102062.59;125036;1102;102442;-78
2022/10/18 07:53:00;;;;;;;49.43;25.13;;;;;;;11.16;68.00;102061.05;124973;1100;104335;-80
2022/10/18 07:56:14;;;;;;;47.10;26.57;;;;;;;11.32;67.98;102054.95;124966;1102;104232;-79
2022/10/18 07:59:02;;;;;;;52.53;27.47;;;;;;;11.46;67.73;102047.86;124953;1102;102280;-79
2022/10/18 08:01:40;;;;;;;51.60;27.13;;;;;;;11.58;67.36;102052.92;124806;1102;102505;-80
2022/10/18 08:04:18;;;;;;;47.17;25.67;;;;;;;11.75;67.35;102054.77;124414;1102;102867;-79
2022/10/18 08:07:37;;;;;;;;;;;;;;;;;;;;;
2022/10/18 08:10:39;;;;;;;46.28;25.65;;;;;;;12.12;67.32;102045.38;124939;1099;104251;-79
2022/10/18 08:17:57;;;;;;;43.83;24.30;;;;;;;12.59;66.92;102044.38;124882;1102;104257;-79
2022/10/18 08:21:16;;;;;;;49.90;24.77;;;;;;;12.77;66.48;102041.77;125754;1099;104102;-80
2022/10/18 08:24:19;;;;;;;44.40;22.60;;;;;;;12.93;67.19;102033.84;124814;1102;102559;-78
2022/10/18 08:27:27;;;;;;;29.27;12.13;;;;;;;13.18;66.48;102027.13;125043;1099;104311;-78
2022/10/18 08:47:41;;;;;;;12.77;6.20;;;;;;;14.69;61.29;102013.05;126482;1089;102485;-77
2022/10/18 08:50:39;;;;;;;15.27;6.30;;;;;;;14.86;61.88;102011.09;126232;1093;106656;-77
2022/10/18 08:53:21;;;;;;;18.97;6.20;;;;;;;15.01;63.01;102007.31;126261;1093;102874;-76
2022/10/18 08:55:55;;;;;;;14.50;6.00;;;;;;;15.12;61.44;102003.37;125840;1093;104206;-77
2022/10/18 08:58:45;;;;;;;15.27;6.03;;;;;;;15.20;61.20;102008.97;127018;1091;101965;-77
2022/10/18 09:01:39;;;;;;;14.50;5.83;;;;;;;15.30;60.79;102000.55;126920;1091;104223;-78
2022/10/18 09:04:58;;;;;;;13.23;5.93;;;;;;;15.45;60.89;102000.27;126609;1089;102715;-76
2022/10/18 09:08:14;;;;;;;11.23;4.87;;;;;;;15.56;60.94;101998.05;127337;1088;102301;-76
2022/10/18 09:11:06;;;;;;;13.67;5.50;;;;;;;15.66;59.98;101992.30;126051;1089;104360;-78
2022/10/18 09:14:24;;;;;;;17.92;6.12;;;;;;;15.78;59.38;101998.09;126211;1090;104248;-78
2022/10/18 09:17:10;;;;;;;9.83;5.20;;;;;;;15.85;59.26;101985.06;126208;1089;103257;-78
2022/10/18 09:20:11;;;;;;;9.57;4.80;;;;;;;15.90;58.56;101979.11;126478;1090;102865;-79
2022/10/18 09:22:53;;;;;;;13.77;5.13;;;;;;;16.01;58.29;101974.21;126571;1089;102395;-78
2022/10/18 09:25:47;;;;;;;11.45;5.30;;;;;;;16.08;57.90;101967.39;127385;1088;103468;-78
2022/10/18 09:28:33;;;;;;;10.47;4.67;;;;;;;16.14;56.88;101960.59;126042;1089;104082;-77
2022/10/18 09:31:40;;;;;;;11.85;5.10;;;;;;;16.24;56.57;101953.86;126060;1089;101932;-77
2022/10/18 09:34:25;;;;;;;10.77;4.90;;;;;;;16.34;55.70;101949.78;126172;1089;102690;-78
2022/10/18 09:36:59;;;;;;;10.77;4.40;;;;;;;16.39;56.33;101948.19;127292;1088;102106;-78
2022/10/18 09:39:37;;;;;;;12.47;5.20;;;;;;;16.45;55.12;101945.75;126707;1089;102069;-78
2022/10/18 09:42:18;;;;;;;14.30;4.80;;;;;;;16.53;55.32;101946.94;126167;1089;102900;-79
2022/10/18 09:44:50;;;;;;;11.57;4.90;;;;;;;16.60;55.18;101940.09;126184;1089;103334;-78
2022/10/18 09:47:31;;;;;;;14.43;5.17;;;;;;;16.69;55.16;101939.52;127025;1088;102381;-79
2022/10/18 09:57:42;;;;;;;12.07;4.37;;;;;;;16.89;53.01;101918.97;125186;1093;104280;-75
2022/10/18 10:00:20;;;;;;;8.27;4.50;;;;;;;16.94;53.21;101920.05;126373;1089;104248;-77
2022/10/18 10:02:52;;;;;;;12.13;4.30;;;;;;;16.98;52.97;101913.97;126844;1089;104657;-78
2022/10/18 10:05:24;;;;;;;9.37;4.03;;;;;;;17.03;52.73;101917.69;125899;1090;102831;-75
2022/10/18 10:08:06;;;;;;;9.83;4.33;;;;;;;17.03;53.07;101899.13;126141;1089;104153;-79
2022/10/18 10:11:00;;;;;;;11.03;4.10;;;;;;;17.14;51.00;101910.07;126400;1089;104149;-80
2022/10/18 10:13:35;;;;;;;10.07;3.80;;;;;;;17.17;51.87;101907.52;126822;1089;104226;-79
2022/10/18 10:16:14;;;;;;;9.30;4.60;;;;;;;17.24;51.97;101893.56;126959;1089;102466;-79
2022/10/18 10:18:56;;;;;;;9.63;4.00;;;;;;;17.28;51.04;101886.63;126534;1089;104219;-78
2022/10/18 10:21:26;;;;;;;8.70;4.00;;;;;;;17.35;51.36;101888.59;125802;1090;103800;-78
2022/10/18 10:24:04;;;;;;;9.93;3.90;;;;;;;17.40;51.06;101881.66;125947;1089;103994;-79
2022/10/18 10:26:47;;;;;;;9.67;3.87;;;;;;;17.49;51.12;101873.08;126827;1089;102856;-77
2022/10/18 10:30:02;;;;;;;8.07;4.20;;;;;;;17.53;50.30;101864.36;125999;1090;104213;-77
2022/10/18 10:32:44;;;;;;;8.03;4.30;;;;;;;17.53;48.92;101864.36;125719;1090;104251;-78
2022/10/18 10:35:31;;;;;;;13.47;4.43;;;;;;;17.56;49.56;101860.87;126048;1089;104152;-75
2022/10/18 10:38:03;;;;;;;9.53;4.40;;;;;;;17.60;49.25;101850.39;127258;1089;102162;-79
2022/10/18 10:40:53;;;;;;;16.13;4.37;;;;;;;17.66;49.25;101849.68;125974;1089;104359;-77
2022/10/18 10:43:49;;;;;;;8.73;4.23;;;;;;;17.68;48.94;101839.99;125859;1089;104220;-78
2022/10/18 10:46:33;;;;;;;9.80;4.07;;;;;;;17.77;48.17;101834.05;126175;1089;102812;-77
2022/10/18 10:49:23;;;;;;;8.13;4.17;;;;;;;17.81;48.06;101835.02;126856;1088;103075;-79
2022/10/18 10:52:04;;;;;;;8.88;3.72;;;;;;;17.84;48.08;101833.37;126782;1089;103347;-77
2022/10/18 10:54:39;;;;;;;8.17;3.77;;;;;;;17.86;47.37;101823.68;127573;1089;101781;-78
2022/10/18 10:57:24;;;;;;;7.55;3.80;;;;;;;17.91;46.89;101821.19;126514;1090;104261;-76
2022/10/18 11:00:10;;;;;;;8.53;3.85;;;;;;;17.95;47.06;101820.39;125875;1089;104283;-78
2022/10/18 11:03:30;;;;;;;9.83;3.70;;;;;;;17.98;46.90;101820.47;127905;1088;102254;-77
2022/10/18 11:06:28;;;;;;;7.80;3.80;;;;;;;18.02;47.18;101813.50;127799;1089;102080;-79
2022/10/18 11:10:02;;;;;;;11.07;4.40;;;;;;;18.06;46.50;101812.70;126859;1089;104203;-79
2022/10/18 11:12:52;;;;;;;12.07;4.00;;;;;;;18.07;46.39;101804.77;126594;1089;102357;-79
2022/10/18 11:16:04;;;;;;;;;;;;;;;;;;;;;
2022/10/18 11:19:47;;;;;;;;;;;;;;;;;;;;;
2022/10/18 11:23:04;;;;;;;7.97;3.90;;;;;;;18.16;45.79;101782.87;126697;1090;104078;-79
2022/10/18 11:26:01;;;;;;;9.73;3.77;;;;;;;18.15;45.26;101773.09;125717;1090;104251;-78
2022/10/18 11:29:03;;;;;;;5.80;3.33;;;;;;;18.16;45.81;101763.39;125855;1089;102844;-78
2022/10/18 11:31:46;;;;;;;7.93;3.67;;;;;;;18.16;44.51;101761.62;126352;1089;104280;-78
2022/10/18 11:34:38;;;;;;;7.10;3.50;;;;;;;18.15;44.70;101762.47;125919;1090;104235;-78
2022/10/18 11:37:36;;;;;;;8.43;3.47;;;;;;;18.14;44.62;101752.73;125957;1089;102489;-78
2022/10/18 11:40:48;;;;;;;7.40;3.33;;;;;;;18.12;43.85;101749.11;127045;1089;102796;-77
2022/10/18 11:44:23;;;;;;;8.30;3.50;;;;;;;18.10;44.04;101734.91;126593;1088;104228;-77
2022/10/18 11:47:21;;;;;;;7.40;3.57;;;;;;;18.12;44.50;101738.48;126159;1089;104312;-78
2022/10/18 11:50:15;;;;;;;8.93;3.30;;;;;;;18.11;43.97;101732.28;126762;1089;103514;-78
2022/10/18 12:00:38;;;;;;;7.20;2.80;;;;;;;18.08;43.97;101715.39;125632;1093;104212;-79
2022/10/18 12:03:33;;;;;;;6.47;2.90;;;;;;;18.06;43.74;101703.80;125769;1093;104280;-79
2022/10/18 12:07:12;;;;;;;8.00;2.93;;;;;;;18.08;43.76;101704.77;126382;1092;102665;-78
2022/10/18 12:10:17;;;;;;;4.15;2.58;;;;;;;18.08;44.15;101699.45;125076;1096;102908;-77
2022/10/18 12:13:16;;;;;;;;;;;;;;;;;;;;;
2022/10/18 12:16:37;;;;;;;6.93;3.10;;;;;;;18.06;42.93;101693.19;126445;1089;102319;-77
2022/10/18 12:23:16;;;;;;;5.60;2.80;;;;;;;17.98;42.84;101678.83;125995;1089;104266;-78
2022/10/18 12:25:50;;;;;;;6.65;3.20;;;;;;;17.94;42.47;101675.22;126114;1089;104156;-78
2022/10/18 12:28:34;;;;;;;7.47;2.87;;;;;;;17.85;42.59;101659.91;125995;1089;102407;-77
2022/10/18 12:31:18;;;;;;;6.85;2.92;;;;;;;17.90;42.61;101663.63;126135;1089;104153;-78
2022/10/18 12:37:23;;;;;;;5.87;2.80;;;;;;;17.88;41.99;101654.71;126714;1089;102981;-79
2022/10/18 12:40:01;;;;;;;8.43;3.17;;;;;;;17.87;41.83;101658.22;126035;1089;104346;-80
2022/10/18 12:43:16;;;;;;;;;;;;;;;;;;;;;
2022/10/18 12:46:05;;;;;;;;;;;;;;;;;;;;;
2022/10/18 12:48:41;;;;;;;5.17;3.00;;;;;;;17.83;41.94;101643.06;126261;1090;103371;-77
2022/10/18 12:51:20;;;;;;;7.43;2.87;;;;;;;17.83;41.21;101642.17;126188;1089;104165;-77
2022/10/18 12:53:54;;;;;;;5.53;3.00;;;;;;;17.79;40.81;101634.13;126057;1089;102841;-77
2022/10/18 12:56:42;;;;;;;6.77;3.10;;;;;;;17.79;40.61;101638.52;126087;1089;104368;-78
2022/10/18 12:59:52;;;;;;;5.27;3.00;;;;;;;17.78;40.13;101628.79;127070;1089;102908;-78
2022/10/18 13:02:49;;;;;;;7.47;3.33;;;;;;;17.78;40.56;101620.83;126156;1089;102798;-78
2022/10/18 13:05:57;;;;;;;5.67;3.30;;;;;;;17.76;40.02;101619.87;126697;1089;103062;-78
2022/10/18 13:08:40;;;;;;;8.63;3.12;;;;;;;17.75;40.41;101620.75;127248;1089;107800;-76
2022/10/18 13:11:40;;;;;;;6.05;3.20;;;;;;;17.73;40.47;101617.14;126032;1089;104197;-77
2022/10/18 13:14:34;;;;;;;9.87;2.80;;;;;;;17.72;40.26;101607.41;125695;1090;104398;-75
2022/10/18 13:17:13;;;;;;;10.00;2.90;;;;;;;17.72;39.97;101605.64;125935;1089;102569;-76
2022/10/18 13:19:54;;;;;;;6.73;3.00;;;;;;;17.72;40.14;101605.64;127173;1089;102341;-76
2022/10/18 13:22:56;;;;;;;8.60;3.07;;;;;;;17.70;40.16;101611.75;126042;1088;104309;-77
2022/10/18 13:25:54;;;;;;;8.27;3.10;;;;;;;17.66;40.16;101597.52;126075;1089;104085;-78
2022/10/18 13:29:03;;;;;;;;;;;;;;;;;;;;;
2022/10/18 13:32:24;;;;;;;7.37;3.07;;;;;;;17.68;40.49;101592.25;127267;1089;102860;-78
2022/10/18 13:35:56;;;;;;;11.70;3.37;;;;;;;17.66;40.50;101591.33;125685;1093;102160;-78
2022/10/18 13:38:48;;;;;;;7.23;2.90;;;;;;;17.63;40.53;101583.30;125329;1093;104294;-77
2022/10/18 13:41:23;;;;;;;7.93;2.97;;;;;;;17.60;40.68;101563.76;125988;1089;104155;-78
2022/10/18 13:44:22;;;;;;;6.10;2.80;;;;;;;17.60;40.56;101573.48;126807;1088;104152;-78
2022/10/18 13:47:34;;;;;;;7.23;2.70;;;;;;;17.59;40.69;101566.38;126117;1089;101850;-78